createdAt,value
2016-05-03T00:00:51.586Z,0
2016-05-03T00:01:51.589Z,0
2016-05-03T00:02:51.591Z,0
2016-05-03T00:03:51.594Z,0
2016-05-03T00:04:51.551Z,0
2016-05-03T00:05:51.444Z,0
2016-05-03T00:06:51.384Z,0
2016-05-03T00:07:51.512Z,0
2016-05-03T00:08:51.545Z,0
2016-05-03T00:09:51.580Z,0
2016-05-03T00:10:51.317Z,0
2016-05-03T00:11:51.570Z,0
2016-05-03T00:12:51.541Z,0
2016-05-03T00:13:51.575Z,0
2016-05-03T00:14:51.406Z,0
2016-05-03T00:15:51.534Z,0
2016-05-03T00:16:51.567Z,0
2016-05-03T00:17:51.539Z,0
2016-05-03T00:18:51.542Z,0
2016-05-03T00:19:51.513Z,0
2016-05-03T00:20:51.390Z,0
2016-05-03T00:21:51.253Z,0
2016-05-03T00:22:51.584Z,0
2016-05-03T00:23:51.539Z,0
2016-05-03T00:24:51.558Z,0
2016-05-03T00:25:51.253Z,0
2016-05-03T00:26:51.533Z,0
2016-05-03T00:27:51.650Z,0
2016-05-03T00:28:51.662Z,0
2016-05-03T00:29:51.352Z,0
2016-05-03T00:30:51.515Z,0
2016-05-03T00:31:54.566Z,0
2016-05-03T00:32:51.538Z,0
2016-05-03T00:33:51.040Z,0
2016-05-03T00:34:51.526Z,0
2016-05-03T00:35:51.530Z,0
2016-05-03T00:36:51.360Z,0
2016-05-03T00:37:51.210Z,0
2016-05-03T00:38:51.525Z,0
2016-05-03T00:39:51.340Z,0
2016-05-03T00:40:51.421Z,0
2016-05-03T00:41:51.501Z,0
2016-05-03T00:42:51.474Z,0
2016-05-03T00:43:51.382Z,0
2016-05-03T00:44:51.166Z,0
2016-05-03T00:45:51.481Z,0
2016-05-03T00:46:51.328Z,0
2016-05-03T00:47:51.331Z,0
2016-05-03T00:48:51.490Z,0
2016-05-03T00:49:51.336Z,0
2016-05-03T00:50:51.495Z,0
2016-05-03T00:51:51.482Z,0
2016-05-03T00:52:51.453Z,0
2016-05-03T00:53:51.472Z,0
2016-05-03T00:54:51.490Z,0
2016-05-03T00:55:51.477Z,0
2016-05-03T00:56:51.308Z,0
2016-05-03T00:57:51.483Z,0
2016-05-03T00:58:51.313Z,0
2016-05-03T00:59:51.175Z,0
2016-05-03T01:00:51.350Z,0
2016-05-03T01:01:51.477Z,0
2016-05-03T01:02:51.465Z,0
2016-05-03T01:03:51.499Z,0
2016-05-03T01:04:51.469Z,0
2016-05-03T01:05:51.333Z,0
2016-05-03T01:06:51.475Z,0
2016-05-03T01:07:51.307Z,0
2016-05-03T01:08:51.480Z,0
2016-05-03T01:09:51.313Z,0
2016-05-03T01:10:51.142Z,0
2016-05-03T01:11:51.458Z,0
2016-05-03T01:12:51.445Z,0
2016-05-03T01:13:51.431Z,0
2016-05-03T01:14:51.451Z,0
2016-05-03T01:15:51.421Z,0
2016-05-03T01:16:51.440Z,0
2016-05-03T01:17:51.145Z,0
2016-05-03T01:18:51.462Z,0
2016-05-03T01:19:51.448Z,0
2016-05-03T01:20:51.435Z,0
2016-05-03T01:21:51.422Z,0
2016-05-03T01:22:51.472Z,0
2016-05-03T01:23:51.287Z,0
2016-05-03T01:24:51.431Z,0
2016-05-03T01:25:51.433Z,0
2016-05-03T01:26:51.420Z,0
2016-05-03T01:27:51.407Z,0
2016-05-03T01:28:51.409Z,0
2016-05-03T01:29:51.412Z,0
2016-05-03T01:30:51.274Z,0
2016-05-03T01:31:51.262Z,0
2016-05-03T01:32:51.280Z,0
2016-05-03T01:33:51.236Z,0
2016-05-03T01:34:51.395Z,0
2016-05-03T01:35:51.428Z,0
2016-05-03T01:36:51.260Z,0
2016-05-03T01:37:51.263Z,0
2016-05-03T01:38:51.249Z,0
2016-05-03T01:39:51.236Z,0
2016-05-03T01:40:51.396Z,0
2016-05-03T01:41:51.430Z,0
2016-05-03T01:42:51.401Z,0
2016-05-03T01:43:51.247Z,0
2016-05-03T01:44:51.390Z,0
2016-05-03T01:45:51.455Z,0
2016-05-03T01:46:51.396Z,0
2016-05-03T01:47:51.243Z,0
2016-05-03T01:48:51.229Z,0
2016-05-03T01:49:51.232Z,0
2016-05-03T01:50:51.360Z,0
2016-05-03T01:51:51.378Z,0
2016-05-03T01:52:51.366Z,0
2016-05-03T01:53:51.243Z,0
2016-05-03T01:54:51.214Z,0
2016-05-03T01:55:51.218Z,0
2016-05-03T01:56:51.235Z,0
2016-05-03T01:57:51.050Z,0
2016-05-03T01:58:51.069Z,0
2016-05-03T01:59:51.353Z,0
2016-05-03T02:00:51.371Z,0
2016-05-03T02:01:51.092Z,0
2016-05-03T02:02:51.361Z,0
2016-05-03T02:03:51.364Z,0
2016-05-03T02:04:51.382Z,0
2016-05-03T02:05:51.198Z,0
2016-05-03T02:06:51.230Z,0
2016-05-03T02:07:51.344Z,0
2016-05-03T02:08:51.174Z,0
2016-05-03T02:09:51.364Z,0
2016-05-03T02:10:51.195Z,0
2016-05-03T02:11:50.885Z,0
2016-05-03T02:12:51.325Z,0
2016-05-03T02:13:51.172Z,0
2016-05-03T02:14:51.205Z,0
2016-05-03T02:15:51.349Z,0
2016-05-03T02:16:51.196Z,0
2016-05-03T02:17:51.166Z,0
2016-05-03T02:18:51.341Z,0
2016-05-03T02:19:51.329Z,0
2016-05-03T02:20:51.363Z,0
2016-05-03T02:21:51.177Z,0
2016-05-03T02:22:51.180Z,0
2016-05-03T02:23:51.307Z,0
2016-05-03T02:24:51.295Z,0
2016-05-03T02:25:51.157Z,0
2016-05-03T02:26:51.316Z,0
2016-05-03T02:27:51.318Z,0
2016-05-03T02:28:51.306Z,0
2016-05-03T02:29:51.153Z,0
2016-05-03T02:30:51.171Z,0
2016-05-03T02:31:51.142Z,0
2016-05-03T02:32:51.128Z,0
2016-05-03T02:33:51.289Z,0
2016-05-03T02:34:51.306Z,0
2016-05-03T02:35:51.200Z,0
2016-05-03T02:36:51.171Z,0
2016-05-03T02:37:51.143Z,0
2016-05-03T02:38:51.302Z,0
2016-05-03T02:39:51.272Z,0
2016-05-03T02:40:51.291Z,0
2016-05-03T02:41:51.122Z,0
2016-05-03T02:42:51.297Z,0
2016-05-03T02:43:51.284Z,0
2016-05-03T02:44:51.286Z,0
2016-05-03T02:45:51.117Z,0
2016-05-03T02:46:51.152Z,0
2016-05-03T02:47:50.982Z,0
2016-05-03T02:48:51.282Z,0
2016-05-03T02:49:51.143Z,0
2016-05-03T02:50:51.256Z,0
2016-05-03T02:51:51.087Z,0
2016-05-03T02:52:52.996Z,0
2016-05-03T02:53:51.090Z,0
2016-05-03T02:54:51.249Z,0
2016-05-03T02:55:51.283Z,0
2016-05-03T02:56:51.098Z,0
2016-05-03T02:57:51.241Z,0
2016-05-03T02:58:51.244Z,0
2016-05-03T02:59:50.777Z,0
2016-05-03T03:00:51.218Z,0
2016-05-03T03:01:51.220Z,0
2016-05-03T03:02:51.067Z,0
2016-05-03T03:03:51.070Z,0
2016-05-03T03:04:51.073Z,0
2016-05-03T03:05:51.372Z,0
2016-05-03T03:06:51.218Z,0
2016-05-03T03:07:51.143Z,0
2016-05-03T03:08:51.255Z,0
2016-05-03T03:09:51.225Z,0
2016-05-03T03:10:51.089Z,0
2016-05-03T03:11:50.856Z,0
2016-05-03T03:12:51.047Z,0
2016-05-03T03:13:51.205Z,0
2016-05-03T03:14:51.209Z,0
2016-05-03T03:15:51.039Z,0
2016-05-03T03:16:51.183Z,0
2016-05-03T03:17:51.170Z,0
2016-05-03T03:18:51.172Z,0
2016-05-03T03:19:51.175Z,0
2016-05-03T03:20:51.177Z,0
2016-05-03T03:21:51.040Z,0
2016-05-03T03:22:51.339Z,0
2016-05-03T03:23:51.014Z,0
2016-05-03T03:24:51.032Z,0
2016-05-03T03:25:51.035Z,0
2016-05-03T03:26:51.146Z,0
2016-05-03T03:27:51.165Z,0
2016-05-03T03:28:51.152Z,0
2016-05-03T03:29:51.124Z,0
2016-05-03T03:30:51.158Z,0
2016-05-03T03:31:51.021Z,0
2016-05-03T03:32:51.023Z,0
2016-05-03T03:33:51.166Z,0
2016-05-03T03:34:51.028Z,0
2016-05-03T03:35:51.015Z,0
2016-05-03T03:36:51.159Z,0
2016-05-03T03:37:51.020Z,0
2016-05-03T03:38:50.851Z,0
2016-05-03T03:39:51.135Z,0
2016-05-03T03:40:50.950Z,0
2016-05-03T03:41:51.078Z,0
2016-05-03T03:42:50.972Z,0
2016-05-03T03:43:50.959Z,0
2016-05-03T03:44:51.118Z,0
2016-05-03T03:45:50.947Z,0
2016-05-03T03:46:51.107Z,0
2016-05-03T03:47:50.953Z,0
2016-05-03T03:48:51.066Z,0
2016-05-03T03:49:51.286Z,0
2016-05-03T03:50:50.915Z,0
2016-05-03T03:51:50.933Z,5
2016-05-03T03:52:50.983Z,5
2016-05-03T03:53:51.063Z,5
2016-05-03T03:54:50.925Z,5
2016-05-03T03:55:51.084Z,5
2016-05-03T03:56:51.088Z,5
2016-05-03T03:57:51.074Z,5
2016-05-03T03:58:51.076Z,5
2016-05-03T03:59:50.907Z,5
2016-05-03T04:00:51.082Z,5
2016-05-03T04:01:50.585Z,5
2016-05-03T04:02:51.041Z,5
2016-05-03T04:03:50.918Z,10
2016-05-03T04:04:51.062Z,10
2016-05-03T04:05:50.940Z,10
2016-05-03T04:06:51.052Z,10
2016-05-03T04:07:51.054Z,10
2016-05-03T04:08:51.025Z,10
2016-05-03T04:09:51.028Z,10
2016-05-03T04:10:51.062Z,10
2016-05-03T04:11:50.878Z,10
2016-05-03T04:12:50.881Z,10
2016-05-03T04:13:51.071Z,10
2016-05-03T04:14:50.885Z,5
2016-05-03T04:15:50.872Z,5
2016-05-03T04:16:51.047Z,5
2016-05-03T04:17:51.050Z,5
2016-05-03T04:18:50.709Z,10
2016-05-03T04:19:50.867Z,10
2016-05-03T04:20:50.745Z,10
2016-05-03T04:21:50.706Z,15
2016-05-03T04:22:51.161Z,15
2016-05-03T04:23:50.930Z,15
2016-05-03T04:24:51.182Z,15
2016-05-03T04:25:51.060Z,20
2016-05-03T04:26:51.245Z,20
2016-05-03T04:27:51.109Z,20
2016-05-03T04:28:51.252Z,25
2016-05-03T04:29:51.272Z,30
2016-05-03T04:30:51.135Z,30
2016-05-03T04:31:51.122Z,30
2016-05-03T04:32:51.145Z,25
2016-05-03T04:33:51.312Z,25
2016-05-03T04:34:51.336Z,25
2016-05-03T04:35:51.205Z,25
2016-05-03T04:36:51.352Z,25
2016-05-03T04:37:51.280Z,25
2016-05-03T04:38:51.379Z,25
2016-05-03T04:39:51.336Z,25
2016-05-03T04:40:51.342Z,25
2016-05-03T04:41:51.347Z,30
2016-05-03T04:42:51.006Z,30
2016-05-03T04:43:51.182Z,30
2016-05-03T04:44:51.201Z,30
2016-05-03T04:45:51.361Z,30
2016-05-03T04:46:51.192Z,30
2016-05-03T04:47:51.164Z,30
2016-05-03T04:48:51.323Z,30
2016-05-03T04:49:51.154Z,35
2016-05-03T04:50:51.157Z,35
2016-05-03T04:51:51.316Z,35
2016-05-03T04:52:51.304Z,35
2016-05-03T04:53:51.321Z,35
2016-05-03T04:54:51.309Z,35
2016-05-03T04:55:51.296Z,35
2016-05-03T04:56:51.299Z,35
2016-05-03T04:57:51.301Z,35
2016-05-03T04:58:51.289Z,35
2016-05-03T04:59:51.151Z,35
2016-05-03T05:00:51.294Z,35
2016-05-03T05:01:51.297Z,35
2016-05-03T05:02:51.284Z,40
2016-05-03T05:03:51.303Z,40
2016-05-03T05:04:51.148Z,40
2016-05-03T05:05:51.120Z,40
2016-05-03T05:06:51.278Z,40
2016-05-03T05:07:52.359Z,45
2016-05-03T05:08:51.159Z,45
2016-05-03T05:09:51.287Z,45
2016-05-03T05:10:51.352Z,50
2016-05-03T05:11:51.261Z,50
2016-05-03T05:12:51.108Z,55
2016-05-03T05:13:51.282Z,60
2016-05-03T05:14:51.253Z,60
2016-05-03T05:15:51.256Z,65
2016-05-03T05:16:51.118Z,65
2016-05-03T05:17:50.949Z,75
2016-05-03T05:18:51.264Z,80
2016-05-03T05:19:51.251Z,95
2016-05-03T05:20:51.238Z,100
2016-05-03T05:21:51.116Z,105
2016-05-03T05:22:51.510Z,120
2016-05-03T05:23:51.074Z,145
2016-05-03T05:24:51.265Z,165
2016-05-03T05:25:51.221Z,190
2016-05-03T05:26:51.207Z,195
2016-05-03T05:27:51.085Z,195
2016-05-03T05:28:51.259Z,200
2016-05-03T05:29:51.262Z,205
2016-05-03T05:30:51.093Z,215
2016-05-03T05:31:51.096Z,220
2016-05-03T05:32:51.239Z,230
2016-05-03T05:33:51.086Z,235
2016-05-03T05:34:51.276Z,220
2016-05-03T05:35:51.091Z,235
2016-05-03T05:36:51.219Z,245
2016-05-03T05:37:52.550Z,250
2016-05-03T05:38:51.271Z,255
2016-05-03T05:39:51.071Z,245
2016-05-03T05:40:51.245Z,235
2016-05-03T05:41:51.122Z,240
2016-05-03T05:42:51.250Z,245
2016-05-03T05:43:51.238Z,245
2016-05-03T05:44:51.271Z,255
2016-05-03T05:45:51.258Z,255
2016-05-03T05:46:51.261Z,250
2016-05-03T05:47:51.280Z,255
2016-05-03T05:48:51.282Z,260
2016-05-03T05:49:51.254Z,260
2016-05-03T05:50:51.132Z,260
2016-05-03T05:51:51.103Z,265
2016-05-03T05:52:51.121Z,270
2016-05-03T05:53:51.265Z,275
2016-05-03T05:54:51.283Z,275
2016-05-03T05:55:51.317Z,275
2016-05-03T05:56:51.288Z,285
2016-05-03T05:57:51.291Z,290
2016-05-03T05:58:51.371Z,285
2016-05-03T05:59:51.343Z,290
2016-05-03T06:00:51.331Z,285
2016-05-03T06:01:51.348Z,280
2016-05-03T06:02:51.164Z,275
2016-05-03T06:03:51.181Z,270
2016-05-03T06:04:51.342Z,260
2016-05-03T06:05:51.204Z,245
2016-05-03T06:06:51.175Z,185
2016-05-03T06:07:51.349Z,180
2016-05-03T06:08:51.180Z,265
2016-05-03T06:09:51.355Z,190
2016-05-03T06:10:51.358Z,170
2016-05-03T06:11:51.361Z,155
2016-05-03T06:12:51.269Z,155
2016-05-03T06:13:51.240Z,155
2016-05-03T06:14:51.103Z,155
2016-05-03T06:15:51.402Z,150
2016-05-03T06:16:51.249Z,165
2016-05-03T06:17:51.267Z,150
2016-05-03T06:18:51.426Z,155
2016-05-03T06:19:51.241Z,155
2016-05-03T06:20:51.416Z,160
2016-05-03T06:21:51.246Z,165
2016-05-03T06:22:51.593Z,180
2016-05-03T06:23:51.424Z,265
2016-05-03T06:24:51.427Z,260
2016-05-03T06:25:51.304Z,230
2016-05-03T06:26:51.446Z,265
2016-05-03T06:27:51.419Z,270
2016-05-03T06:28:51.437Z,280
2016-05-03T06:29:51.315Z,285
2016-05-03T06:30:50.990Z,280
2016-05-03T06:31:51.289Z,280
2016-05-03T06:32:51.463Z,275
2016-05-03T06:33:51.466Z,255
2016-05-03T06:34:51.297Z,255
2016-05-03T06:35:51.346Z,275
2016-05-03T06:36:51.334Z,280
2016-05-03T06:37:51.352Z,280
2016-05-03T06:38:51.510Z,285
2016-05-03T06:39:51.342Z,285
2016-05-03T06:40:51.531Z,295
2016-05-03T06:41:51.487Z,290
2016-05-03T06:42:51.365Z,285
2016-05-03T06:43:51.525Z,290
2016-05-03T06:44:51.355Z,295
2016-05-03T06:45:51.372Z,300
2016-05-03T06:46:51.563Z,305
2016-05-03T06:47:51.566Z,305
2016-05-03T06:48:51.241Z,305
2016-05-03T06:49:51.259Z,305
2016-05-03T06:50:51.418Z,310
2016-05-03T06:51:51.264Z,275
2016-05-03T06:52:51.439Z,305
2016-05-03T06:53:51.598Z,300
2016-05-03T06:54:51.585Z,255
2016-05-03T06:55:51.493Z,275
2016-05-03T06:56:51.278Z,300
2016-05-03T06:57:51.593Z,295
2016-05-03T06:58:51.643Z,305
2016-05-03T06:59:51.615Z,305
2016-05-03T07:00:51.617Z,290
2016-05-03T07:01:51.635Z,280
2016-05-03T07:02:51.654Z,260
2016-05-03T07:03:51.203Z,245
2016-05-03T07:04:51.659Z,270
2016-05-03T07:05:51.537Z,235
2016-05-03T07:06:51.680Z,215
2016-05-03T07:07:51.370Z,290
2016-05-03T07:08:51.529Z,230
2016-05-03T07:09:51.531Z,245
2016-05-03T07:10:51.753Z,320
2016-05-03T07:11:51.740Z,310
2016-05-03T07:12:51.415Z,315
2016-05-03T07:13:51.731Z,295
2016-05-03T07:14:51.561Z,290
2016-05-03T07:15:51.783Z,295
2016-05-03T07:16:51.581Z,280
2016-05-03T07:17:51.756Z,285
2016-05-03T07:18:51.619Z,325
2016-05-03T07:19:51.793Z,320
2016-05-03T07:20:51.452Z,315
2016-05-03T07:21:51.767Z,330
2016-05-03T07:22:52.255Z,355
2016-05-03T07:23:51.788Z,355
2016-05-03T07:24:51.338Z,350
2016-05-03T07:25:51.810Z,355
2016-05-03T07:26:51.812Z,355
2016-05-03T07:27:51.815Z,330
2016-05-03T07:28:51.848Z,325
2016-05-03T07:29:51.836Z,330
2016-05-03T07:30:51.698Z,335
2016-05-03T07:31:51.857Z,305
2016-05-03T07:32:51.547Z,300
2016-05-03T07:33:51.877Z,305
2016-05-03T07:34:51.865Z,290
2016-05-03T07:35:51.742Z,310
2016-05-03T07:36:51.901Z,305
2016-05-03T07:37:52.045Z,290
2016-05-03T07:38:51.750Z,290
2016-05-03T07:39:51.910Z,280
2016-05-03T07:40:51.928Z,285
2016-05-03T07:41:51.899Z,275
2016-05-03T07:42:51.762Z,275
2016-05-03T07:43:51.764Z,285
2016-05-03T07:44:51.939Z,300
2016-05-03T07:45:51.941Z,310
2016-05-03T07:46:51.944Z,295
2016-05-03T07:47:51.806Z,295
2016-05-03T07:48:51.793Z,280
2016-05-03T07:49:51.983Z,295
2016-05-03T07:50:51.970Z,310
2016-05-03T07:51:51.833Z,315
2016-05-03T07:52:51.819Z,335
2016-05-03T07:53:52.010Z,350
2016-05-03T07:54:51.872Z,365
2016-05-03T07:55:51.844Z,315
2016-05-03T07:56:52.018Z,310
2016-05-03T07:57:52.004Z,295
2016-05-03T07:58:53.491Z,260
2016-05-03T07:59:52.010Z,260
2016-05-03T08:00:52.044Z,310
2016-05-03T08:01:51.875Z,305
2016-05-03T08:02:52.081Z,280
2016-05-03T08:03:52.052Z,270
2016-05-03T08:04:52.071Z,260
2016-05-03T08:05:51.933Z,260
2016-05-03T08:06:51.935Z,270
2016-05-03T08:07:51.907Z,285
2016-05-03T08:08:51.644Z,285
2016-05-03T08:09:52.131Z,280
2016-05-03T08:10:51.930Z,280
2016-05-03T08:11:51.934Z,290
2016-05-03T08:12:52.107Z,275
2016-05-03T08:13:52.125Z,280
2016-05-03T08:14:52.176Z,305
2016-05-03T08:15:52.131Z,310
2016-05-03T08:16:51.978Z,320
2016-05-03T08:17:52.137Z,320
2016-05-03T08:18:52.139Z,295
2016-05-03T08:19:52.142Z,295
2016-05-03T08:20:52.175Z,300
2016-05-03T08:21:52.194Z,295
2016-05-03T08:22:51.869Z,300
2016-05-03T08:23:52.184Z,310
2016-05-03T08:24:52.202Z,300
2016-05-03T08:25:52.221Z,310
2016-05-03T08:26:52.208Z,290
2016-05-03T08:27:52.085Z,315
2016-05-03T08:28:52.229Z,340
2016-05-03T08:29:52.232Z,330
2016-05-03T08:30:52.219Z,340
2016-05-03T08:31:52.268Z,345
2016-05-03T08:32:52.240Z,340
2016-05-03T08:33:52.242Z,345
2016-05-03T08:34:52.260Z,350
2016-05-03T08:35:52.107Z,350
2016-05-03T08:36:52.125Z,365
2016-05-03T08:37:52.284Z,360
2016-05-03T08:38:51.990Z,310
2016-05-03T08:39:52.148Z,360
2016-05-03T08:40:52.323Z,335
2016-05-03T08:41:52.123Z,290
2016-05-03T08:42:52.141Z,300
2016-05-03T08:43:52.144Z,280
2016-05-03T08:44:52.304Z,290
2016-05-03T08:45:52.321Z,290
2016-05-03T08:46:52.152Z,265
2016-05-03T08:47:52.187Z,255
2016-05-03T08:48:52.345Z,250
2016-05-03T08:49:52.363Z,250
2016-05-03T08:50:52.366Z,305
2016-05-03T08:51:52.384Z,300
2016-05-03T08:52:52.636Z,270
2016-05-03T08:53:52.389Z,265
2016-05-03T08:54:52.252Z,270
2016-05-03T08:55:52.255Z,315
2016-05-03T08:56:52.398Z,300
2016-05-03T08:57:52.244Z,270
2016-05-03T08:58:52.278Z,285
2016-05-03T08:59:52.281Z,265
2016-05-03T09:00:52.455Z,265
2016-05-03T09:01:52.427Z,285
2016-05-03T09:02:52.445Z,280
2016-05-03T09:03:52.432Z,270
2016-05-03T09:04:52.279Z,260
2016-05-03T09:05:52.282Z,270
2016-05-03T09:06:52.456Z,310
2016-05-03T09:07:52.505Z,285
2016-05-03T09:08:52.446Z,240
2016-05-03T09:09:52.464Z,240
2016-05-03T09:10:52.451Z,255
2016-05-03T09:11:52.470Z,225
2016-05-03T09:12:52.488Z,220
2016-05-03T09:13:52.334Z,230
2016-05-03T09:14:52.478Z,230
2016-05-03T09:15:52.495Z,240
2016-05-03T09:16:52.483Z,255
2016-05-03T09:17:52.501Z,250
2016-05-03T09:18:52.191Z,255
2016-05-03T09:19:52.491Z,275
2016-05-03T09:20:52.525Z,305
2016-05-03T09:21:52.511Z,295
2016-05-03T09:22:52.842Z,245
2016-05-03T09:23:52.548Z,230
2016-05-03T09:24:52.536Z,235
2016-05-03T09:25:52.538Z,270
2016-05-03T09:26:52.385Z,235
2016-05-03T09:27:52.528Z,250
2016-05-03T09:28:52.531Z,300
2016-05-03T09:29:52.424Z,285
2016-05-03T09:30:52.552Z,315
2016-05-03T09:31:52.398Z,300
2016-05-03T09:32:52.260Z,270
2016-05-03T09:33:52.543Z,265
2016-05-03T09:34:52.547Z,330
2016-05-03T09:35:52.596Z,345
2016-05-03T09:36:52.412Z,360
2016-05-03T09:37:52.602Z,380
2016-05-03T09:38:52.573Z,375
2016-05-03T09:39:52.591Z,365
2016-05-03T09:40:52.579Z,355
2016-05-03T09:41:52.440Z,320
2016-05-03T09:42:52.599Z,280
2016-05-03T09:43:52.602Z,275
2016-05-03T09:44:52.621Z,275
2016-05-03T09:45:52.639Z,280
2016-05-03T09:46:52.454Z,300
2016-05-03T09:47:52.473Z,300
2016-05-03T09:48:52.647Z,345
2016-05-03T09:49:52.634Z,350
2016-05-03T09:50:52.636Z,300
2016-05-03T09:51:52.640Z,330
2016-05-03T09:52:53.189Z,360
2016-05-03T09:53:52.472Z,360
2016-05-03T09:54:52.648Z,290
2016-05-03T09:55:52.666Z,270
2016-05-03T09:56:52.528Z,265
2016-05-03T09:57:52.515Z,265
2016-05-03T09:58:52.674Z,265
2016-05-03T09:59:52.692Z,260
2016-05-03T10:00:52.726Z,260
2016-05-03T10:01:52.698Z,280
2016-05-03T10:02:52.700Z,255
2016-05-03T10:03:52.546Z,255
2016-05-03T10:04:52.518Z,260
2016-05-03T10:05:52.724Z,260
2016-05-03T10:06:52.554Z,265
2016-05-03T10:07:52.541Z,265
2016-05-03T10:08:52.560Z,265
2016-05-03T10:09:52.718Z,260
2016-05-03T10:10:52.565Z,255
2016-05-03T10:11:52.724Z,250
2016-05-03T10:12:52.415Z,250
2016-05-03T10:13:52.745Z,250
2016-05-03T10:14:52.592Z,255
2016-05-03T10:15:52.751Z,255
2016-05-03T10:16:52.754Z,255
2016-05-03T10:17:52.443Z,255
2016-05-03T10:18:52.775Z,305
2016-05-03T10:19:52.589Z,310
2016-05-03T10:20:52.765Z,330
2016-05-03T10:21:52.751Z,345
2016-05-03T10:22:53.160Z,375
2016-05-03T10:23:52.788Z,375
2016-05-03T10:24:52.791Z,365
2016-05-03T10:25:52.794Z,355
2016-05-03T10:26:52.765Z,315
2016-05-03T10:27:52.642Z,345
2016-05-03T10:28:52.645Z,330
2016-05-03T10:29:52.664Z,350
2016-05-03T10:30:52.822Z,345
2016-05-03T10:31:52.794Z,350
2016-05-03T10:32:52.672Z,370
2016-05-03T10:33:52.830Z,370
2016-05-03T10:34:52.818Z,370
2016-05-03T10:35:52.836Z,340
2016-05-03T10:36:52.870Z,305
2016-05-03T10:37:53.232Z,310
2016-05-03T10:38:52.860Z,305
2016-05-03T10:39:52.566Z,310
2016-05-03T10:40:52.849Z,310
2016-05-03T10:41:52.712Z,315
2016-05-03T10:42:52.886Z,320
2016-05-03T10:43:52.857Z,315
2016-05-03T10:44:52.704Z,310
2016-05-03T10:45:52.863Z,295
2016-05-03T10:46:52.850Z,280
2016-05-03T10:47:52.884Z,265
2016-05-03T10:48:52.886Z,245
2016-05-03T10:49:52.889Z,230
2016-05-03T10:50:52.767Z,220
2016-05-03T10:51:52.895Z,215
2016-05-03T10:52:52.992Z,210
2016-05-03T10:53:52.759Z,205
2016-05-03T10:54:52.886Z,205
2016-05-03T10:55:52.718Z,200
2016-05-03T10:56:52.939Z,200
2016-05-03T10:57:52.614Z,195
2016-05-03T10:58:52.929Z,190
2016-05-03T10:59:52.931Z,185
2016-05-03T11:00:52.981Z,175
2016-05-03T11:01:52.781Z,165
2016-05-03T11:02:52.939Z,160
2016-05-03T11:03:52.802Z,150
2016-05-03T11:04:52.930Z,145
2016-05-03T11:05:52.776Z,135
2016-05-03T11:06:52.825Z,125
2016-05-03T11:07:52.985Z,125
2016-05-03T11:08:52.784Z,120
2016-05-03T11:09:52.788Z,115
2016-05-03T11:10:52.946Z,115
2016-05-03T11:11:53.042Z,110
2016-05-03T11:12:52.780Z,105
2016-05-03T11:13:52.797Z,105
2016-05-03T11:14:52.956Z,105
2016-05-03T11:15:52.943Z,105
2016-05-03T11:16:52.993Z,100
2016-05-03T11:17:52.840Z,100
2016-05-03T11:18:52.967Z,105
2016-05-03T11:19:52.954Z,105
2016-05-03T11:20:52.987Z,105
2016-05-03T11:21:52.648Z,105
2016-05-03T11:22:53.572Z,105
2016-05-03T11:23:52.965Z,105
2016-05-03T11:24:52.656Z,110
2016-05-03T11:25:52.986Z,115
2016-05-03T11:26:53.020Z,120
2016-05-03T11:27:52.961Z,120
2016-05-03T11:28:52.838Z,120
2016-05-03T11:29:52.669Z,115
2016-05-03T11:30:52.844Z,115
2016-05-03T11:31:52.971Z,120
2016-05-03T11:32:52.895Z,120
2016-05-03T11:33:52.852Z,120
2016-05-03T11:34:52.994Z,125
2016-05-03T11:35:52.841Z,130
2016-05-03T11:36:52.985Z,140
2016-05-03T11:37:52.565Z,145
2016-05-03T11:38:52.865Z,140
2016-05-03T11:39:53.024Z,135
2016-05-03T11:40:52.870Z,125
2016-05-03T11:41:52.858Z,125
2016-05-03T11:42:52.985Z,120
2016-05-03T11:43:52.988Z,120
2016-05-03T11:44:53.022Z,120
2016-05-03T11:45:53.040Z,115
2016-05-03T11:46:52.854Z,115
2016-05-03T11:47:52.998Z,110
2016-05-03T11:48:53.688Z,110
2016-05-03T11:49:53.035Z,110
2016-05-03T11:50:53.023Z,95
2016-05-03T11:51:52.884Z,95
2016-05-03T11:52:54.824Z,95
2016-05-03T11:53:53.030Z,95
2016-05-03T11:54:53.018Z,95
2016-05-03T11:55:52.692Z,100
2016-05-03T11:56:53.039Z,100
2016-05-03T11:57:52.869Z,100
2016-05-03T11:58:52.903Z,105
2016-05-03T11:59:53.015Z,105
2016-05-03T12:00:53.017Z,110
2016-05-03T12:01:52.849Z,110
2016-05-03T12:02:52.867Z,105
2016-05-03T12:03:53.244Z,100
2016-05-03T12:04:53.013Z,100
2016-05-03T12:05:52.563Z,85
2016-05-03T12:06:52.706Z,75
2016-05-03T12:07:52.928Z,80
2016-05-03T12:08:53.024Z,90
2016-05-03T12:09:52.870Z,80
2016-05-03T12:10:52.733Z,80
2016-05-03T12:11:53.094Z,80
2016-05-03T12:12:52.957Z,75
2016-05-03T12:13:52.880Z,80
2016-05-03T12:14:53.025Z,85
2016-05-03T12:15:53.027Z,85
2016-05-03T12:16:52.857Z,85
2016-05-03T12:17:52.860Z,85
2016-05-03T12:18:53.019Z,85
2016-05-03T12:19:52.882Z,95
2016-05-03T12:20:52.869Z,105
2016-05-03T12:21:53.027Z,115
2016-05-03T12:22:52.734Z,115
2016-05-03T12:23:52.893Z,115
2016-05-03T12:24:53.021Z,120
2016-05-03T12:25:53.054Z,145
2016-05-03T12:26:53.040Z,160
2016-05-03T12:27:53.028Z,175
2016-05-03T12:28:52.890Z,195
2016-05-03T12:29:53.048Z,215
2016-05-03T12:30:52.864Z,235
2016-05-03T12:31:53.039Z,260
2016-05-03T12:32:53.011Z,270
2016-05-03T12:33:52.873Z,285
2016-05-03T12:34:53.031Z,300
2016-05-03T12:35:53.033Z,320
2016-05-03T12:36:53.067Z,345
2016-05-03T12:37:53.070Z,370
2016-05-03T12:38:53.042Z,395
2016-05-03T12:39:53.045Z,405
2016-05-03T12:40:52.875Z,410
2016-05-03T12:41:53.050Z,405
2016-05-03T12:42:53.052Z,395
2016-05-03T12:43:52.899Z,385
2016-05-03T12:44:53.057Z,375
2016-05-03T12:45:52.733Z,355
2016-05-03T12:46:52.892Z,330
2016-05-03T12:47:52.910Z,290
2016-05-03T12:48:52.897Z,250
2016-05-03T12:49:53.071Z,240
2016-05-03T12:50:52.918Z,225
2016-05-03T12:51:53.045Z,215
2016-05-03T12:52:53.157Z,210
2016-05-03T12:53:53.051Z,190
2016-05-03T12:54:52.897Z,215
2016-05-03T12:55:53.103Z,260
2016-05-03T12:56:53.106Z,270
2016-05-03T12:57:53.078Z,270
2016-05-03T12:58:52.612Z,255
2016-05-03T12:59:53.068Z,245
2016-05-03T13:00:53.086Z,255
2016-05-03T13:01:52.932Z,275
2016-05-03T13:02:53.059Z,285
2016-05-03T13:03:53.062Z,280
2016-05-03T13:04:53.050Z,265
2016-05-03T13:05:53.083Z,255
2016-05-03T13:06:53.133Z,240
2016-05-03T13:07:53.072Z,240
2016-05-03T13:08:52.950Z,240
2016-05-03T13:09:53.110Z,245
2016-05-03T13:10:52.941Z,255
2016-05-03T13:11:53.100Z,270
2016-05-03T13:12:53.118Z,290
2016-05-03T13:13:53.089Z,310
2016-05-03T13:14:53.124Z,320
2016-05-03T13:15:53.126Z,335
2016-05-03T13:16:52.957Z,345
2016-05-03T13:17:53.084Z,345
2016-05-03T13:18:53.087Z,340
2016-05-03T13:19:52.933Z,330
2016-05-03T13:20:53.108Z,320
2016-05-03T13:21:52.970Z,315
2016-05-03T13:22:53.927Z,295
2016-05-03T13:23:52.977Z,285
2016-05-03T13:24:53.125Z,280
2016-05-03T13:25:52.971Z,275
2016-05-03T13:26:53.115Z,270
2016-05-03T13:27:52.998Z,275
2016-05-03T13:28:53.057Z,285
2016-05-03T13:29:53.241Z,290
2016-05-03T13:30:53.112Z,295
2016-05-03T13:31:53.156Z,295
2016-05-03T13:32:53.217Z,290
2016-05-03T13:33:53.218Z,285
2016-05-03T13:34:53.220Z,275
2016-05-03T13:35:53.394Z,275
2016-05-03T13:36:53.396Z,275
2016-05-03T13:37:53.110Z,275
2016-05-03T13:38:53.416Z,280
2016-05-03T13:39:53.440Z,285
2016-05-03T13:40:53.369Z,290
2016-05-03T13:41:53.487Z,300
2016-05-03T13:42:53.494Z,310
2016-05-03T13:43:53.467Z,315
2016-05-03T13:44:53.142Z,315
2016-05-03T13:45:53.304Z,320
2016-05-03T13:46:53.324Z,320
2016-05-03T13:47:53.343Z,320
2016-05-03T13:48:53.331Z,325
2016-05-03T13:49:53.319Z,325
2016-05-03T13:50:53.338Z,325
2016-05-03T13:51:53.483Z,310
2016-05-03T13:52:53.204Z,285
2016-05-03T13:53:53.317Z,255
2016-05-03T13:54:53.461Z,235
2016-05-03T13:55:53.495Z,225
2016-05-03T13:56:53.498Z,220
2016-05-03T13:57:53.485Z,220
2016-05-03T13:58:53.487Z,220
2016-05-03T13:59:53.506Z,220
2016-05-03T14:00:53.493Z,225
2016-05-03T14:01:53.512Z,215
2016-05-03T14:02:53.484Z,210
2016-05-03T14:03:53.392Z,210
2016-05-03T14:04:53.614Z,200
2016-05-03T14:05:53.507Z,200
2016-05-03T14:06:53.541Z,210